Time;durP1;ratioP1;P1;durP2;ratioP2;P2;SDS_P1;SDS_P2;PMS_P1;PMS_P2;Temp;Humidity;BMP_temperature;BMP_pressure;BME280_temperature;BME280_humidity;BME280_pressure;Samples;Min_cycle;Max_cycle;Signal;HPM_P1;HPM_P2
2020/12/15 00:00:13;;;;;;;25.68;10.93;;;;;;;5.40;85.23;99718.27;1742669;81;21162;-90
2020/12/15 00:02:42;;;;;;;25.35;11.80;;;;;;;5.41;85.21;99718.25;1731351;77;21171;-90
2020/12/15 00:05:10;;;;;;;24.82;11.73;;;;;;;5.42;84.93;99723.86;1740992;81;21299;-88
2020/12/15 00:07:37;;;;;;;23.10;10.95;;;;;;;5.24;84.59;99697.55;1735919;81;21653;-91
2020/12/15 00:10:06;;;;;;;25.25;11.22;;;;;;;5.32;84.93;99726.81;1740745;78;21276;-90
2020/12/15 00:12:33;;;;;;;27.25;10.68;;;;;;;5.30;84.57;99728.52;1673524;78;21978;-88
2020/12/15 00:15:01;;;;;;;23.83;11.28;;;;;;;5.25;84.72;99730.22;1651033;85;21201;-89
2020/12/15 00:17:29;;;;;;;25.15;11.88;;;;;;;5.25;84.46;99730.22;1753657;78;21595;-89
2020/12/15 00:19:56;;;;;;;27.85;11.10;;;;;;;5.19;85.14;99734.02;1799354;78;21330;-89
2020/12/15 00:22:24;;;;;;;25.12;10.72;;;;;;;5.15;84.93;99729.70;1806142;78;21568;-89
2020/12/15 00:24:51;;;;;;;24.15;10.18;;;;;;;5.12;84.95;99735.70;1795141;78;21275;-90
2020/12/15 00:27:18;;;;;;;26.00;9.95;;;;;;;5.14;84.74;99731.85;1800005;78;21884;-89
2020/12/15 00:29:46;;;;;;;25.95;10.93;;;;;;;5.11;84.89;99733.10;1792700;79;21161;-88
2020/12/15 00:32:13;;;;;;;25.17;10.18;;;;;;;5.10;85.28;99739.12;1795868;78;21161;-88
2020/12/15 00:34:41;;;;;;;26.90;10.63;;;;;;;5.13;85.30;99743.00;1802455;77;21697;-88
2020/12/15 00:37:09;;;;;;;26.95;11.08;;;;;;;5.14;85.33;99740.88;1754863;79;21272;-90
2020/12/15 00:39:37;;;;;;;22.15;10.20;;;;;;;5.18;85.43;99743.47;1753491;79;21131;-88
2020/12/15 00:42:06;;;;;;;26.40;10.60;;;;;;;5.23;85.50;99746.07;1779594;79;21296;-84
2020/12/15 00:44:37;;;;;;;28.70;11.08;;;;;;;5.25;85.41;99746.98;1727711;82;21637;-88
2020/12/15 00:47:05;;;;;;;21.70;10.00;;;;;;;5.19;85.40;99721.13;1766494;77;21151;-87
2020/12/15 00:49:33;;;;;;;24.27;11.73;;;;;;;5.33;85.46;99740.16;1776912;79;21110;-84
2020/12/15 00:52:01;;;;;;;25.05;11.43;;;;;;;5.35;85.07;99733.29;1776002;77;21292;-89
2020/12/15 00:54:29;;;;;;;24.55;10.70;;;;;;;5.34;84.70;99741.86;1719447;80;21561;-88
2020/12/15 00:56:57;;;;;;;27.10;11.60;;;;;;;5.37;84.61;99737.14;1750998;81;21182;-89
2020/12/15 00:59:24;;;;;;;24.87;11.75;;;;;;;5.35;84.68;99737.56;1782155;80;21213;-89
2020/12/15 01:01:51;;;;;;;26.87;10.98;;;;;;;5.32;84.49;99742.28;1807974;77;21157;-88
2020/12/15 01:04:20;;;;;;;22.77;11.43;;;;;;;5.26;84.71;99733.22;1807385;77;21133;-85
2020/12/15 01:06:49;;;;;;;24.67;11.03;;;;;;;5.27;84.27;99733.67;1807536;77;21284;-84
2020/12/15 01:09:22;;;;;;;23.02;10.82;;;;;;;5.21;83.99;99740.05;1813198;77;21239;-89
2020/12/15 01:11:49;;;;;;;22.02;9.78;;;;;;;5.13;84.35;99741.30;1803252;78;21173;-90
2020/12/15 01:14:19;;;;;;;16.42;8.53;;;;;;;5.13;84.65;99731.40;1771953;79;21309;-90
2020/12/15 01:16:50;;;;;;;25.48;10.25;;;;;;;5.11;84.53;99730.53;1772788;78;21180;-90
2020/12/15 01:19:17;;;;;;;20.02;8.95;;;;;;;5.08;84.29;99733.09;1770629;81;21166;-90
2020/12/15 01:21:46;;;;;;;25.77;10.80;;;;;;;5.07;84.46;99727.06;1762971;77;21289;-87
2020/12/15 01:24:14;;;;;;;24.85;11.05;;;;;;;5.08;84.73;99723.64;1735104;78;21340;-87
2020/12/15 01:26:54;;;;;;;24.23;10.15;;;;;;;5.16;84.92;99721.13;1864063;74;23086;-88
2020/12/15 01:29:21;;;;;;;25.32;10.00;;;;;;;5.14;84.84;99727.55;1843161;77;21166;-91
2020/12/15 01:31:49;;;;;;;27.65;10.03;;;;;;;5.17;85.03;99721.55;1839759;75;21146;-91
2020/12/15 01:34:21;;;;;;;21.25;8.83;;;;;;;5.07;84.79;99704.30;1734988;78;21178;-89
2020/12/15 01:36:54;;;;;;;24.00;10.20;;;;;;;5.22;84.77;99722.45;1732336;79;21153;-90
2020/12/15 01:39:23;;;;;;;23.15;8.88;;;;;;;5.25;85.18;99717.73;1756108;79;21291;-89
2020/12/15 01:41:53;;;;;;;25.75;9.95;;;;;;;5.29;85.04;99719.48;1727215;81;21143;-91
2020/12/15 01:44:20;;;;;;;22.95;9.93;;;;;;;5.23;85.03;99722.88;1726863;83;21140;-90
2020/12/15 01:46:50;;;;;;;24.32;11.20;;;;;;;5.24;84.82;99713.02;1712029;79;21197;-89
2020/12/15 01:49:21;;;;;;;26.68;9.75;;;;;;;5.26;84.70;99713.03;1736699;78;21185;-88
2020/12/15 01:51:50;;;;;;;24.02;10.08;;;;;;;5.28;84.78;99709.59;1734894;81;21330;-88
2020/12/15 01:54:20;;;;;;;24.82;11.22;;;;;;;5.28;84.71;99712.17;1720871;83;21288;-85
2020/12/15 01:56:49;;;;;;;22.60;10.85;;;;;;;5.17;84.54;99706.08;1714401;80;21294;-87
2020/12/15 01:59:22;;;;;;;24.18;11.33;;;;;;;5.10;84.31;99698.74;1720328;79;21598;-89
2020/12/15 02:01:52;;;;;;;23.35;10.82;;;;;;;5.17;84.22;99712.52;1748723;81;21225;-86
2020/12/15 02:04:21;;;;;;;23.55;8.98;;;;;;;5.14;84.00;99712.52;1756504;80;21294;-90
2020/12/15 02:06:58;;;;;;;24.10;11.30;;;;;;;5.08;84.56;99720.22;1863292;75;29130;-89
2020/12/15 02:09:28;;;;;;;25.30;9.65;;;;;;;5.07;84.45;99724.48;1738774;78;21189;-89
2020/12/15 02:12:15;;;;;;;23.77;10.35;;;;;;;5.05;84.68;99722.31;1760821;79;21766;-91
2020/12/15 02:14:45;;;;;;;18.62;8.83;;;;;;;5.08;84.70;99717.64;1740409;80;21298;-90
2020/12/15 02:17:15;;;;;;;17.98;8.68;;;;;;;5.06;84.68;99712.89;1754259;80;21117;-89
2020/12/15 02:20:29;;;;;;;20.35;8.28;;;;;;;5.08;84.85;99712.48;1740509;77;21290;-89
2020/12/15 02:23:05;;;;;;;16.32;8.28;;;;;;;5.21;85.05;99713.41;1785672;79;22946;-89
2020/12/15 02:25:35;;;;;;;24.02;9.18;;;;;;;5.14;84.87;99717.67;1721787;80;21264;-89
2020/12/15 02:28:03;;;;;;;24.20;10.65;;;;;;;5.09;84.50;99716.77;1702105;79;22124;-89
2020/12/15 02:30:30;;;;;;;21.30;9.98;;;;;;;5.12;84.69;99712.94;1689141;83;21209;-89
2020/12/15 02:32:59;;;;;;;18.37;9.18;;;;;;;5.15;84.68;99711.25;1749123;81;21140;-90
2020/12/15 02:35:28;;;;;;;23.07;10.13;;;;;;;5.17;84.66;99708.66;1753836;80;21314;-88
2020/12/15 02:37:56;;;;;;;25.00;10.88;;;;;;;5.16;84.75;99714.69;1742853;80;21160;-89
2020/12/15 02:40:25;;;;;;;20.52;9.88;;;;;;;5.18;84.25;99712.98;1740080;80;21269;-88
2020/12/15 02:43:04;;;;;;;19.60;8.78;;;;;;;5.21;84.43;99712.13;1882259;75;23067;-91
2020/12/15 02:45:33;;;;;;;21.52;9.30;;;;;;;5.12;83.89;99715.08;1758606;78;21576;-91
2020/12/15 02:48:02;;;;;;;17.27;9.30;;;;;;;5.09;84.06;99712.50;1720844;82;21470;-89
2020/12/15 02:50:31;;;;;;;19.02;8.98;;;;;;;5.04;83.92;99708.16;1800784;79;21159;-90
2020/12/15 02:53:17;;;;;;;18.70;9.40;;;;;;;5.09;83.65;99709.92;1803442;78;23397;-88
2020/12/15 02:55:46;;;;;;;22.52;9.55;;;;;;;4.96;83.98;99711.97;1745403;78;21135;-90
2020/12/15 02:58:15;;;;;;;20.75;7.67;;;;;;;4.94;83.84;99714.52;1761281;80;21235;-89
2020/12/15 03:00:44;;;;;;;19.65;8.28;;;;;;;4.91;83.92;99711.05;1732026;80;21605;-88
2020/12/15 03:03:11;;;;;;;20.40;8.53;;;;;;;4.91;84.13;99713.20;1750111;80;21168;-91
2020/12/15 03:05:41;;;;;;;18.27;7.45;;;;;;;4.90;84.29;99710.20;1776678;79;21148;-91
2020/12/15 03:08:09;;;;;;;20.30;8.83;;;;;;;4.91;84.46;99702.89;1779592;79;21507;-87
2020/12/15 03:10:36;;;;;;;19.85;9.28;;;;;;;4.93;84.50;99705.08;1775886;81;21148;-89
2020/12/15 03:13:04;;;;;;;22.13;8.75;;;;;;;4.97;84.76;99713.27;1763142;79;21152;-90
2020/12/15 03:15:32;;;;;;;19.23;9.23;;;;;;;5.03;84.72;99711.14;1651989;82;21182;-89
2020/12/15 03:18:00;;;;;;;20.65;8.13;;;;;;;5.04;84.69;99718.47;1738606;80;21125;-87
2020/12/15 03:20:29;;;;;;;18.20;8.55;;;;;;;5.07;84.53;99712.88;1747709;79;21655;-88
2020/12/15 03:22:56;;;;;;;19.82;9.05;;;;;;;5.11;84.64;99714.66;1753817;81;21154;-90
2020/12/15 03:25:25;;;;;;;20.15;9.00;;;;;;;5.17;84.71;99715.10;1709086;82;21170;-90
2020/12/15 03:27:54;;;;;;;19.67;9.25;;;;;;;5.18;84.81;99713.83;1734280;79;21157;-89
2020/12/15 03:30:23;;;;;;;18.15;9.48;;;;;;;5.18;84.47;99714.27;1745943;79;21146;-86
2020/12/15 03:32:51;;;;;;;20.95;8.95;;;;;;;5.15;84.35;99718.98;1716093;81;21739;-87
2020/12/15 03:35:18;;;;;;;22.60;9.13;;;;;;;5.14;84.17;99720.25;1777035;79;21359;-89
2020/12/15 03:37:46;;;;;;;19.52;9.50;;;;;;;5.11;84.19;99726.26;1763445;80;21614;-88
2020/12/15 03:40:15;;;;;;;20.35;9.28;;;;;;;5.10;83.89;99723.66;1702109;81;21204;-89
2020/12/15 03:42:44;;;;;;;20.45;9.65;;;;;;;5.08;84.00;99724.08;1685395;81;21930;-90
2020/12/15 03:45:13;;;;;;;21.42;9.58;;;;;;;5.04;83.91;99724.47;1763263;80;21489;-86
2020/12/15 03:47:42;;;;;;;25.97;10.93;;;;;;;5.03;83.93;99723.17;1712393;81;21207;-84
2020/12/15 03:50:10;;;;;;;24.47;10.13;;;;;;;4.97;83.80;99721.00;1725441;78;21265;-89
2020/12/15 03:52:38;;;;;;;24.05;8.53;;;;;;;4.94;83.92;99726.12;1701615;78;21142;-88
2020/12/15 03:55:11;;;;;;;24.10;11.03;;;;;;;4.91;84.11;99724.79;1718849;81;21172;-90
2020/12/15 03:57:44;;;;;;;26.70;10.00;;;;;;;4.91;84.07;99722.65;1740161;78;21227;-85
2020/12/15 04:00:13;;;;;;;17.48;8.28;;;;;;;4.89;84.25;99725.20;1735982;77;21138;-89
2020/12/15 04:02:43;;;;;;;19.57;8.58;;;;;;;4.87;84.60;99726.91;1727475;80;21156;-88
2020/12/15 04:05:13;;;;;;;22.15;9.03;;;;;;;4.89;84.52;99721.34;1767884;78;21233;-86
2020/12/15 04:07:43;;;;;;;20.97;9.68;;;;;;;4.89;84.70;99725.20;1788535;77;21194;-90
2020/12/15 04:10:12;;;;;;;19.92;8.68;;;;;;;4.93;85.05;99729.56;1809568;78;21112;-79
2020/12/15 04:12:42;;;;;;;17.12;7.80;;;;;;;4.92;84.76;99730.83;1737395;82;21152;-90
2020/12/15 04:15:10;;;;;;;19.82;8.43;;;;;;;4.93;84.80;99730.84;1701705;80;21172;-89
2020/12/15 04:17:38;;;;;;;19.65;9.00;;;;;;;5.01;85.06;99730.88;1696277;82;21272;-86
2020/12/15 04:20:07;;;;;;;23.38;9.58;;;;;;;5.02;84.64;99736.92;1733038;80;21144;-88
2020/12/15 04:22:34;;;;;;;23.62;10.28;;;;;;;5.07;84.86;99737.37;1709876;82;21186;-88
2020/12/15 04:25:04;;;;;;;22.45;10.20;;;;;;;5.08;84.85;99733.95;1747271;79;21171;-89
2020/12/15 04:27:34;;;;;;;20.02;9.58;;;;;;;5.08;84.84;99737.82;1732187;79;21258;-89
2020/12/15 04:30:05;;;;;;;26.30;10.82;;;;;;;5.11;84.53;99747.28;1704352;81;21326;-85
2020/12/15 04:32:32;;;;;;;23.38;10.93;;;;;;;5.11;84.63;99750.74;1803824;77;21158;-88
2020/12/15 04:35:02;;;;;;;22.65;10.25;;;;;;;5.16;84.30;99763.66;1825127;77;21496;-87
2020/12/15 04:37:31;;;;;;;25.02;9.68;;;;;;;5.12;84.09;99763.20;1724103;80;21459;-87
2020/12/15 04:40:00;;;;;;;26.45;10.98;;;;;;;5.07;84.31;99770.02;1676888;80;21213;-92
2020/12/15 04:42:29;;;;;;;21.20;9.00;;;;;;;5.06;84.32;99769.59;1639711;79;21150;-91
2020/12/15 04:44:57;;;;;;;24.60;10.85;;;;;;;5.04;84.41;99775.16;1656615;85;21162;-91
2020/12/15 04:47:37;;;;;;;29.20;11.22;;;;;;;4.99;84.55;99769.95;1634988;83;21201;-90
2020/12/15 04:50:09;;;;;;;25.12;12.37;;;;;;;4.99;84.70;99780.26;1643897;81;21169;-89
2020/12/15 04:52:57;;;;;;;26.20;10.13;;;;;;;4.98;84.62;99780.69;1799963;78;22933;-89
2020/12/15 04:55:28;;;;;;;25.20;11.08;;;;;;;4.84;85.31;99791.31;1736111;78;21154;-89
2020/12/15 04:58:00;;;;;;;25.35;11.10;;;;;;;4.87;85.04;99791.31;1685660;83;21573;-88
2020/12/15 05:00:29;;;;;;;23.65;10.10;;;;;;;4.86;85.05;99789.61;1680168;79;21173;-92
2020/12/15 05:03:00;;;;;;;27.58;11.10;;;;;;;4.87;85.48;99797.77;1750035;80;21149;-88
2020/12/15 05:05:31;;;;;;;25.80;11.33;;;;;;;4.89;85.33;99796.06;1683242;79;21318;-88
2020/12/15 05:10:37;;;;;;;33.42;13.60;;;;;;;4.95;85.77;99805.16;1813598;78;22946;-89
2020/12/15 05:13:29;;;;;;;32.70;14.35;;;;;;;4.98;85.55;99805.17;1792349;78;23078;-89
2020/12/15 05:15:57;;;;;;;36.42;13.85;;;;;;;4.97;85.79;99809.02;1696442;80;21189;-89
2020/12/15 05:18:35;;;;;;;33.42;15.75;;;;;;;5.04;85.91;99815.11;1804105;77;22617;-90
2020/12/15 05:21:23;;;;;;;35.33;15.72;;;;;;;5.01;85.78;99817.64;1711907;77;21507;-89
2020/12/15 05:23:54;;;;;;;31.60;14.03;;;;;;;4.97;85.83;99813.77;1702308;78;21110;-89
2020/12/15 05:26:26;;;;;;;28.02;13.32;;;;;;;4.97;85.58;99820.21;1699163;82;21531;-90
2020/12/15 05:29:06;;;;;;;26.48;12.63;;;;;;;4.90;85.99;99820.14;1750539;80;21127;-90
2020/12/15 05:31:43;;;;;;;25.82;12.63;;;;;;;4.90;85.44;99822.28;1709533;80;21148;-89
2020/12/15 05:34:34;;;;;;;26.80;12.18;;;;;;;4.89;86.24;99819.25;1893057;75;22881;-91
2020/12/15 05:37:20;;;;;;;27.77;13.32;;;;;;;4.89;86.06;99826.13;1789372;77;28522;-90
2020/12/15 05:40:07;;;;;;;24.92;11.63;;;;;;;4.88;85.70;99825.27;1773747;80;21160;-89
2020/12/15 05:42:38;;;;;;;28.45;12.07;;;;;;;4.86;85.87;99830.83;1778089;80;21258;-89
2020/12/15 05:45:07;;;;;;;29.42;12.58;;;;;;;4.85;85.91;99840.69;1711054;79;21139;-90
2020/12/15 05:47:39;;;;;;;27.77;11.18;;;;;;;4.86;85.52;99835.98;1691259;78;21538;-90
2020/12/15 05:50:10;;;;;;;23.32;9.88;;;;;;;4.82;85.71;99832.94;1727123;80;21117;-90
2020/12/15 05:52:38;;;;;;;23.85;10.53;;;;;;;4.82;85.61;99838.53;1714418;82;21156;-87
2020/12/15 05:55:09;;;;;;;29.67;11.03;;;;;;;4.83;85.70;99845.39;1710576;79;21604;-90
2020/12/15 05:57:37;;;;;;;25.65;11.83;;;;;;;4.78;85.84;99847.50;1643612;86;21913;-90
2020/12/15 06:00:10;;;;;;;31.70;11.57;;;;;;;4.80;85.86;99851.38;1736741;79;21639;-88
2020/12/15 06:02:42;;;;;;;31.05;12.85;;;;;;;4.82;85.91;99853.55;1735475;79;21178;-88
2020/12/15 06:05:10;;;;;;;35.43;14.18;;;;;;;4.82;85.75;99856.56;1694137;80;21154;-90
2020/12/15 06:07:43;;;;;;;27.32;12.23;;;;;;;4.84;85.73;99860.02;1677006;83;21559;-85
2020/12/15 06:10:10;;;;;;;25.88;12.13;;;;;;;4.84;85.47;99862.59;1707648;81;21176;-89
2020/12/15 06:12:38;;;;;;;26.02;12.60;;;;;;;4.82;85.44;99861.71;1706009;82;21211;-92
2020/12/15 06:15:05;;;;;;;26.62;12.58;;;;;;;4.79;85.40;99871.54;1728379;79;21160;-90
2020/12/15 06:17:33;;;;;;;26.40;11.57;;;;;;;4.75;85.22;99862.91;1721181;83;21968;-90
2020/12/15 06:20:01;;;;;;;26.27;10.65;;;;;;;4.71;85.44;99877.03;1721852;79;21212;-90
2020/12/15 06:22:31;;;;;;;24.82;10.80;;;;;;;4.68;85.73;99877.02;1734649;79;21142;-89
2020/12/15 06:25:00;;;;;;;31.73;11.55;;;;;;;4.66;85.95;99874.84;1713752;80;21166;-90
2020/12/15 06:27:33;;;;;;;24.07;10.90;;;;;;;4.74;85.47;99877.08;1720739;79;21325;-90
2020/12/15 06:30:05;;;;;;;23.32;11.05;;;;;;;4.69;85.86;99878.73;1764493;80;21169;-90
2020/12/15 06:32:34;;;;;;;34.13;12.03;;;;;;;4.74;85.68;99883.52;1739095;80;21941;-88
2020/12/15 06:35:11;;;;;;;27.90;11.78;;;;;;;4.78;85.73;99884.85;1691872;79;22301;-88
2020/12/15 06:37:36;;;;;;;21.12;11.28;;;;;;;4.78;85.77;99885.28;1677927;80;21342;-88
2020/12/15 06:40:05;;;;;;;27.27;13.35;;;;;;;4.83;85.74;99887.47;1767833;80;21161;-92
2020/12/15 06:42:36;;;;;;;27.22;12.53;;;;;;;4.83;85.63;99887.47;1703481;81;21157;-90
2020/12/15 06:45:12;;;;;;;28.00;11.80;;;;;;;4.82;85.52;99884.90;1715606;81;21192;-90
2020/12/15 06:47:41;;;;;;;28.60;11.95;;;;;;;4.84;85.30;99885.78;1692684;78;21225;-91
2020/12/15 06:50:17;;;;;;;25.30;11.68;;;;;;;4.81;85.02;99890.89;1734432;79;21168;-90
2020/12/15 06:52:45;;;;;;;26.52;12.43;;;;;;;4.79;85.06;99898.59;1720580;76;21190;-92
2020/12/15 06:55:14;;;;;;;27.25;10.65;;;;;;;4.77;84.96;99901.58;1725101;80;21152;-91
2020/12/15 06:57:42;;;;;;;23.95;10.03;;;;;;;4.75;85.12;99905.41;1717301;79;21153;-90
2020/12/15 07:00:11;;;;;;;23.73;10.03;;;;;;;4.75;84.87;99901.98;1717319;82;21771;-91
2020/12/15 07:02:43;;;;;;;22.82;10.25;;;;;;;4.75;85.14;99908.42;1748257;79;21168;-90
2020/12/15 07:05:22;;;;;;;33.02;11.22;;;;;;;4.80;85.24;99904.20;1741518;79;21184;-91
2020/12/15 07:08:03;;;;;;;21.37;10.05;;;;;;;4.80;85.26;99906.77;1753591;79;21452;-89
2020/12/15 07:10:37;;;;;;;25.77;11.10;;;;;;;4.88;85.29;99904.28;1724417;78;21621;-91
2020/12/15 07:13:12;;;;;;;24.75;11.20;;;;;;;4.87;85.20;99909.84;1722958;80;21165;-92
2020/12/15 07:15:41;;;;;;;30.97;12.73;;;;;;;4.86;85.04;99921.44;1717001;80;21156;-93
2020/12/15 07:18:10;;;;;;;27.15;11.93;;;;;;;4.91;85.05;99912.03;1684535;80;21152;-93
2020/12/15 07:20:38;;;;;;;29.10;14.10;;;;;;;4.96;85.16;99905.23;1732852;81;21199;-93
2020/12/15 07:23:08;;;;;;;26.80;12.73;;;;;;;5.01;84.68;99913.85;1766064;80;21312;-94
2020/12/15 07:25:38;;;;;;;;;;;;;;;5.06;84.92;99920.37;1772755;80;21320;-93
2020/12/15 07:28:06;;;;;;;28.75;13.30;;;;;;;5.13;84.63;99914.01;1780472;79;20267;-92
2020/12/15 07:30:37;;;;;;;25.92;12.30;;;;;;;5.11;84.13;99918.69;1758357;80;21228;-93
2020/12/15 07:33:06;;;;;;;33.15;13.55;;;;;;;5.12;83.92;99921.72;1801016;78;21305;-94
2020/12/15 07:35:34;;;;;;;28.12;12.25;;;;;;;5.05;84.01;99917.34;1810459;78;21266;-93
2020/12/15 07:38:03;;;;;;;29.60;12.37;;;;;;;5.04;83.94;99916.91;1746501;77;21153;-95
2020/12/15 07:40:32;;;;;;;32.40;11.80;;;;;;;5.03;83.86;99908.73;1795729;79;21265;-92
2020/12/15 07:43:04;;;;;;;28.70;12.07;;;;;;;4.98;84.13;99913.41;1807214;79;21338;-92
2020/12/15 07:45:57;;;;;;;23.80;10.93;;;;;;;5.05;84.47;99905.30;1808290;77;23056;-93
2020/12/15 07:48:28;;;;;;;27.48;10.45;;;;;;;5.03;84.14;99910.02;1816606;78;21299;-94
2020/12/15 07:51:04;;;;;;;27.17;11.05;;;;;;;5.02;84.38;99907.02;1695203;76;21281;-92
2020/12/15 07:53:32;;;;;;;22.27;9.20;;;;;;;5.08;84.03;99919.95;1736314;78;21124;-92
2020/12/15 07:56:07;;;;;;;23.62;10.35;;;;;;;5.07;84.10;99920.80;1755213;79;21135;-91
2020/12/15 07:58:37;;;;;;;26.02;10.65;;;;;;;5.11;84.09;99911.84;1726159;82;21164;-91
2020/12/15 08:01:04;;;;;;;29.05;10.78;;;;;;;5.17;84.49;99919.63;1722082;82;21183;-92
2020/12/15 08:03:32;;;;;;;23.70;10.65;;;;;;;5.18;84.37;99917.48;1732339;82;21376;-92
2020/12/15 08:09:06;;;;;;;24.85;9.70;;;;;;;5.23;83.93;99916.66;1707260;83;21191;-92
2020/12/15 08:11:35;;;;;;;25.57;11.30;;;;;;;5.20;83.01;99922.66;1697301;81;21136;-93
2020/12/15 08:14:05;;;;;;;21.50;10.88;;;;;;;5.26;83.77;99923.14;1739731;81;21138;-91
2020/12/15 08:16:33;;;;;;;25.08;11.90;;;;;;;5.27;83.86;99918.01;1703644;78;21197;-92
2020/12/15 08:19:04;;;;;;;26.02;12.30;;;;;;;5.34;83.76;99922.78;1728702;82;21248;-92
2020/12/15 08:21:59;;;;;;;30.00;12.85;;;;;;;5.34;83.65;99921.06;1802040;77;21258;-94
2020/12/15 08:24:29;;;;;;;28.07;12.73;;;;;;;5.40;83.26;99917.69;1763187;79;21279;-91
2020/12/15 08:26:58;;;;;;;31.27;13.88;;;;;;;5.45;83.36;99919.89;1740884;79;21331;-91
2020/12/15 08:29:28;;;;;;;35.73;13.88;;;;;;;5.48;83.40;99922.91;1750888;81;21297;-92
2020/12/15 08:31:57;;;;;;;30.37;14.25;;;;;;;5.21;83.18;99880.54;1700143;79;21301;-93
2020/12/15 08:34:25;;;;;;;31.52;13.95;;;;;;;5.49;83.07;99916.89;1776851;80;21290;-93
2020/12/15 08:36:55;;;;;;;31.15;13.10;;;;;;;5.56;83.26;99921.27;1773438;80;21250;-94
2020/12/15 08:39:27;;;;;;;28.02;12.47;;;;;;;5.55;82.96;99914.36;1838724;77;21265;-92
2020/12/15 08:41:59;;;;;;;28.98;13.08;;;;;;;5.59;82.93;99916.14;1717498;79;21130;-92
2020/12/15 08:44:27;;;;;;;59.08;22.55;;;;;;;5.57;83.05;99923.86;1752035;80;21118;-92
2020/12/15 08:46:56;;;;;;;37.63;15.28;;;;;;;5.63;82.98;99925.63;1731107;81;21614;-91
2020/12/15 08:49:27;;;;;;;28.38;11.03;;;;;;;5.68;82.85;99926.52;1736024;80;21183;-92
2020/12/15 08:51:55;;;;;;;29.52;11.68;;;;;;;5.69;82.56;99920.52;1781297;78;21166;-90
2020/12/15 08:54:24;;;;;;;41.83;13.28;;;;;;;5.72;82.98;99920.52;1770144;77;21159;-91
2020/12/15 08:56:53;;;;;;;37.35;12.13;;;;;;;5.77;82.58;99920.15;1769876;78;21172;-93
2020/12/15 08:59:23;;;;;;;35.03;14.13;;;;;;;5.80;81.63;99909.41;1769867;78;21308;-93
2020/12/15 09:02:03;;;;;;;30.70;13.18;;;;;;;5.85;82.90;99911.17;1767400;79;21118;-94
2020/12/15 09:04:31;;;;;;;32.53;14.35;;;;;;;5.88;82.60;99916.34;1742600;81;21329;-92
2020/12/15 09:07:03;;;;;;;30.62;14.53;;;;;;;5.86;81.88;99918.05;1715534;77;21313;-91
2020/12/15 09:09:32;;;;;;;32.05;13.10;;;;;;;5.78;81.30;99907.67;1730122;78;21616;-92
2020/12/15 09:12:00;;;;;;;32.93;12.03;;;;;;;5.72;81.02;99914.08;1707805;82;21124;-85
2020/12/15 09:14:28;;;;;;;27.73;11.95;;;;;;;5.74;80.38;99903.34;1771085;79;21289;-91
2020/12/15 09:16:55;;;;;;;20.10;9.53;;;;;;;5.73;79.91;99900.34;1779802;80;21556;-91
2020/12/15 09:19:26;;;;;;;24.35;9.85;;;;;;;5.73;80.75;99901.63;1759481;81;21159;-91
2020/12/15 09:22:09;;;;;;;23.67;9.53;;;;;;;5.71;79.93;99905.03;1696740;79;21569;-91
2020/12/15 09:24:44;;;;;;;25.55;9.73;;;;;;;5.77;80.12;99907.25;1683491;83;21143;-91
2020/12/15 09:27:24;;;;;;;26.50;10.15;;;;;;;5.82;80.25;99904.69;1666684;82;21216;-91
2020/12/15 09:29:58;;;;;;;20.27;9.65;;;;;;;5.92;81.24;99894.86;1701815;81;21130;-87
2020/12/15 09:32:36;;;;;;;25.08;11.75;;;;;;;5.91;79.43;99887.14;1693682;81;21144;-91
2020/12/15 09:35:15;;;;;;;39.08;12.00;;;;;;;5.92;79.80;99891.42;1683330;84;21145;-89
2020/12/15 09:37:48;;;;;;;26.12;11.55;;;;;;;5.93;80.21;99897.05;1716955;79;21171;-92
2020/12/15 09:40:20;;;;;;;28.52;10.70;;;;;;;5.98;79.79;99900.09;1738764;78;21116;-90
2020/12/15 09:42:53;;;;;;;25.05;10.82;;;;;;;6.06;79.53;99887.23;1773927;79;21853;-92
2020/12/15 09:45:36;;;;;;;24.02;9.65;;;;;;;6.13;79.80;99882.56;1732614;79;21561;-93
2020/12/15 09:48:05;;;;;;;25.23;9.80;;;;;;;6.14;78.36;99886.84;1743454;80;21169;-92
2020/12/15 09:50:37;;;;;;;25.95;11.70;;;;;;;6.16;78.69;99883.84;1741962;81;21168;-93
2020/12/15 09:53:15;;;;;;;20.12;10.43;;;;;;;6.22;78.46;99880.88;1705132;83;21191;-94
2020/12/15 09:56:04;;;;;;;25.70;10.88;;;;;;;6.25;78.55;99877.89;1763431;78;21326;-92
2020/12/15 09:58:40;;;;;;;22.77;10.35;;;;;;;6.27;77.75;99877.91;1709837;78;21275;-92
2020/12/15 10:01:20;;;;;;;18.67;9.28;;;;;;;6.25;78.44;99884.34;1735042;79;21155;-93
2020/12/15 10:04:07;;;;;;;22.32;8.43;;;;;;;6.35;78.69;99882.23;1733527;82;21228;-92
2020/12/15 10:06:37;;;;;;;20.57;8.05;;;;;;;6.33;77.57;99868.45;1686857;81;21186;-92
2020/12/15 10:09:15;;;;;;;20.77;9.08;;;;;;;6.37;77.84;99877.94;1739760;80;21297;-92
2020/12/15 10:11:49;;;;;;;27.52;9.45;;;;;;;6.36;77.24;99862.43;1712447;81;21220;-93
2020/12/15 10:14:19;;;;;;;19.15;8.63;;;;;;;6.46;78.82;99864.19;1717275;82;21205;-90
2020/12/15 10:17:03;;;;;;;18.60;8.35;;;;;;;6.37;76.81;99868.91;1705383;79;21743;-92
2020/12/15 10:19:43;;;;;;;22.35;10.50;;;;;;;6.39;76.28;99867.62;1694008;82;22158;-93
2020/12/15 10:22:13;;;;;;;24.00;10.48;;;;;;;6.50;76.82;99865.92;1677809;80;21146;-91
2020/12/15 10:24:44;;;;;;;34.65;10.38;;;;;;;6.37;76.74;99833.18;1759328;79;21596;-91
2020/12/15 10:27:14;;;;;;;21.65;10.30;;;;;;;6.55;76.40;99859.50;1713046;81;21147;-92
2020/12/15 10:29:48;;;;;;;24.12;11.50;;;;;;;6.54;76.81;99859.91;1731283;81;21156;-90
2020/12/15 10:32:24;;;;;;;23.40;10.58;;;;;;;6.54;77.30;99853.45;1699532;81;21138;-90
2020/12/15 10:35:06;;;;;;;25.10;13.05;;;;;;;6.57;76.39;99851.33;1702209;82;21333;-91
2020/12/15 10:37:36;;;;;;;23.15;10.63;;;;;;;6.57;76.37;99850.04;1772265;78;21115;-93
2020/12/15 10:40:09;;;;;;;21.48;10.08;;;;;;;6.55;76.01;99847.44;1762121;78;21089;-88
2020/12/15 10:42:40;;;;;;;23.67;10.88;;;;;;;6.55;76.95;99847.44;1734056;78;21184;-93
2020/12/15 10:45:17;;;;;;;22.65;9.93;;;;;;;6.56;76.50;99845.31;1756257;80;21570;-91
2020/12/15 10:47:50;;;;;;;20.30;9.88;;;;;;;6.54;76.29;99834.52;1774819;78;21262;-90
2020/12/15 10:50:19;;;;;;;24.82;12.88;;;;;;;6.61;77.21;99838.00;1732417;82;21594;-90
2020/12/15 10:52:51;;;;;;;22.52;10.63;;;;;;;6.55;76.44;99835.81;1780318;78;21255;-93
2020/12/15 10:55:26;;;;;;;20.88;8.00;;;;;;;6.52;76.93;99832.36;1791783;77;21110;-91
2020/12/15 10:57:55;;;;;;;42.65;13.38;;;;;;;6.55;76.50;99826.77;1829950;76;21154;-91
2020/12/15 11:00:27;;;;;;;33.35;11.73;;;;;;;6.54;76.95;99825.47;1780506;78;21278;-91
2020/12/15 11:02:57;;;;;;;20.40;8.35;;;;;;;6.61;76.69;99819.91;1754090;79;21170;-92
2020/12/15 11:05:27;;;;;;;20.17;9.10;;;;;;;6.64;76.96;99822.48;1761943;79;21136;-91
2020/12/15 11:07:55;;;;;;;23.40;9.88;;;;;;;6.64;77.02;99823.78;1773018;79;21259;-92
2020/12/15 11:10:26;;;;;;;23.27;10.03;;;;;;;6.63;77.84;99828.53;1820878;78;21122;-91
2020/12/15 11:13:00;;;;;;;25.72;10.70;;;;;;;6.62;77.38;99828.08;1714540;78;21375;-89
2020/12/15 11:15:28;;;;;;;23.07;10.03;;;;;;;6.70;76.76;99828.52;1707155;80;21298;-92
2020/12/15 11:17:59;;;;;;;27.85;12.70;;;;;;;6.57;76.28;99824.20;1764507;80;21215;-93
2020/12/15 11:20:28;;;;;;;22.82;10.03;;;;;;;6.61;76.91;99828.95;1788208;78;21759;-92
2020/12/15 11:23:00;;;;;;;26.00;10.18;;;;;;;6.68;76.88;99831.97;1799220;78;21323;-93
2020/12/15 11:25:26;;;;;;;24.92;10.93;;;;;;;6.69;76.66;99830.69;1820551;77;21260;-92
2020/12/15 11:27:54;;;;;;;22.58;10.90;;;;;;;6.49;76.66;99809.11;1826260;77;21892;-93
2020/12/15 11:30:22;;;;;;;22.17;9.98;;;;;;;6.72;76.47;99837.58;1794916;78;21126;-91
2020/12/15 11:32:50;;;;;;;20.27;8.18;;;;;;;6.61;77.10;99834.13;1805830;78;21724;-91
2020/12/15 11:35:18;;;;;;;19.45;8.60;;;;;;;6.62;77.19;99837.12;1795089;78;21146;-88
2020/12/15 11:37:46;;;;;;;25.00;8.53;;;;;;;6.65;76.89;99842.31;1825700;77;21361;-94
2020/12/15 11:40:14;;;;;;;22.42;9.55;;;;;;;6.69;76.91;99836.30;1829800;77;21280;-94
2020/12/15 11:42:42;;;;;;;21.42;9.10;;;;;;;6.79;77.36;99835.89;1772349;78;21178;-94
2020/12/15 11:45:09;;;;;;;23.20;9.60;;;;;;;6.75;77.09;99828.11;1748153;81;21527;-93
2020/12/15 11:47:37;;;;;;;20.75;8.78;;;;;;;6.79;76.05;99828.13;1747652;81;21321;-93
2020/12/15 11:50:05;;;;;;;18.60;8.75;;;;;;;6.69;76.62;99806.58;1750165;81;21167;-93
2020/12/15 11:52:33;;;;;;;28.32;12.33;;;;;;;6.81;76.78;99836.75;1740208;81;21149;-93